Time;durP1;ratioP1;P1;durP2;ratioP2;P2;SDS_P1;SDS_P2;PMS_P1;PMS_P2;Temp;Humidity;BMP_temperature;BMP_pressure;BME280_temperature;BME280_humidity;BME280_pressure;Samples;Min_cycle;Max_cycle;Signal;HPM_P1;HPM_P2
2021/11/13 00:00:58;;;;;;;85.75;38.17;;;;;;;3.38;88.19;100227.24;1710941;82;21460;-77
2021/11/13 00:03:24;;;;;;;97.65;39.38;;;;;;;3.46;88.55;100221.91;1716680;83;21744;-76
2021/11/13 00:05:51;;;;;;;108.57;45.60;;;;;;;3.46;88.55;100221.91;1715348;83;21435;-78
2021/11/13 00:08:18;;;;;;;90.20;35.90;;;;;;;3.52;88.72;100220.87;1715701;83;21490;-78
2021/11/13 00:10:46;;;;;;;69.05;34.20;;;;;;;3.65;88.39;100227.27;1697184;82;21511;-78
2021/11/13 00:13:13;;;;;;;76.42;33.53;;;;;;;3.65;88.39;100227.27;1702275;83;20911;-75
2021/11/13 00:15:40;;;;;;;71.05;31.97;;;;;;;3.64;88.21;100223.73;1716902;81;21072;-74
2021/11/13 00:18:09;;;;;;;58.83;27.65;;;;;;;3.65;88.42;100235.42;1725666;83;21443;-74
2021/11/13 00:20:36;;;;;;;62.98;28.75;;;;;;;3.65;88.65;100224.56;1721598;82;20920;-76
2021/11/13 00:23:02;;;;;;;54.65;26.30;;;;;;;3.78;89.08;100226.06;1708349;82;21462;-75
2021/11/13 00:25:29;;;;;;;54.48;26.02;;;;;;;3.78;89.08;100226.06;1722884;82;20912;-75
2021/11/13 00:27:55;;;;;;;60.50;28.57;;;;;;;3.80;89.07;100220.66;1714612;81;21125;-75
2021/11/13 00:30:21;;;;;;;63.45;29.75;;;;;;;3.89;89.06;100231.90;1714361;83;20971;-75
2021/11/13 00:32:49;;;;;;;63.50;29.32;;;;;;;3.92;88.92;100228.13;1705296;83;20884;-76
2021/11/13 00:35:15;;;;;;;59.77;28.00;;;;;;;3.93;88.88;100225.70;1717003;83;20935;-75
2021/11/13 00:37:42;;;;;;;59.75;27.65;;;;;;;3.96;89.03;100231.16;1713213;83;20905;-75
2021/11/13 00:40:12;;;;;;;58.28;26.65;;;;;;;3.98;89.19;100234.44;1711966;83;21113;-75
2021/11/13 00:42:38;;;;;;;53.75;26.12;;;;;;;3.97;89.08;100232.80;1720106;83;21003;-76
2021/11/13 00:45:06;;;;;;;52.67;26.00;;;;;;;3.93;88.76;100237.92;1716159;82;21486;-76
2021/11/13 00:47:34;;;;;;;58.80;26.85;;;;;;;3.91;89.17;100237.36;1692194;83;21521;-76
2021/11/13 00:50:01;;;;;;;58.55;27.55;;;;;;;3.91;89.17;100237.36;1726779;83;20938;-76
2021/11/13 00:52:29;;;;;;;55.15;27.75;;;;;;;3.92;89.40;100234.92;1722352;82;21827;-77
2021/11/13 00:54:55;;;;;;;60.70;28.70;;;;;;;3.93;89.39;100230.31;1693081;84;20923;-76
2021/11/13 00:57:22;;;;;;;62.58;28.85;;;;;;;3.97;89.36;100236.87;1734068;81;20942;-77
2021/11/13 00:59:48;;;;;;;57.10;26.60;;;;;;;4.00;89.33;100239.08;1724716;81;20870;-77
2021/11/13 01:02:15;;;;;;;59.67;26.57;;;;;;;4.04;89.30;100237.50;1707682;82;21519;-76
2021/11/13 01:04:43;;;;;;;55.43;26.75;;;;;;;4.07;89.20;100237.49;1719077;81;21159;-78
2021/11/13 01:07:12;;;;;;;57.03;27.27;;;;;;;4.07;89.00;100234.77;1724393;81;21431;-77
2021/11/13 01:09:38;;;;;;;71.65;31.42;;;;;;;4.06;89.02;100227.16;1716240;81;21476;-79
2021/11/13 01:12:06;;;;;;;61.65;28.38;;;;;;;4.13;89.00;100235.11;1709774;82;21460;-75
2021/11/13 01:14:39;;;;;;;59.50;27.42;;;;;;;4.15;88.87;100236.49;1723124;81;20915;-75
2021/11/13 01:17:06;;;;;;;63.08;28.47;;;;;;;4.13;88.99;100232.39;1706511;82;21034;-77
2021/11/13 01:19:34;;;;;;;58.55;28.20;;;;;;;4.13;88.99;100232.39;1700471;83;21078;-77
2021/11/13 01:22:02;;;;;;;73.30;32.15;;;;;;;4.14;89.24;100228.59;1693880;83;20899;-77
2021/11/13 01:24:29;;;;;;;71.25;32.90;;;;;;;4.14;89.04;100225.88;1708879;81;21090;-74
2021/11/13 01:26:55;;;;;;;79.03;36.95;;;;;;;4.15;89.03;100222.09;1692953;82;20912;-74
2021/11/13 01:29:22;;;;;;;70.52;34.05;;;;;;;4.13;89.01;100229.14;1689654;83;21112;-74
2021/11/13 01:31:50;;;;;;;71.17;34.27;;;;;;;4.15;89.11;100229.70;1731237;82;21101;-74
2021/11/13 01:34:17;;;;;;;75.25;35.33;;;;;;;4.13;89.00;100224.24;1721727;81;20911;-76
2021/11/13 01:36:44;;;;;;;91.42;38.42;;;;;;;4.12;89.20;100217.17;1708561;81;20969;-76
2021/11/13 01:39:10;;;;;;;79.47;34.88;;;;;;;4.12;89.25;100227.50;1720038;81;20951;-75
2021/11/13 01:41:37;;;;;;;78.92;34.30;;;;;;;4.15;89.33;100224.27;1707445;82;21910;-76
2021/11/13 01:44:06;;;;;;;75.12;33.30;;;;;;;4.18;89.40;100222.94;1703667;81;21433;-76
2021/11/13 01:46:35;;;;;;;66.10;30.50;;;;;;;4.15;89.62;100217.47;1733293;79;20842;-74
2021/11/13 01:49:02;;;;;;;74.92;34.38;;;;;;;4.15;89.62;100217.47;1704536;82;20983;-77
2021/11/13 01:51:33;;;;;;;67.53;31.52;;;;;;;4.16;89.46;100221.01;1696253;83;21534;-77
2021/11/13 01:54:05;;;;;;;80.47;35.05;;;;;;;4.12;89.63;100214.45;1711538;80;21744;-77
2021/11/13 01:56:30;;;;;;;66.20;30.90;;;;;;;4.14;89.88;100220.45;1707636;82;21561;-76
2021/11/13 01:58:58;;;;;;;73.12;34.83;;;;;;;4.17;89.86;100226.73;1705254;81;20903;-77
2021/11/13 02:01:26;;;;;;;74.42;35.88;;;;;;;4.17;89.80;100228.09;1719706;81;20948;-76
2021/11/13 02:03:53;;;;;;;72.20;33.88;;;;;;;4.19;89.68;100234.08;1711265;81;20954;-77
2021/11/13 02:06:21;;;;;;;68.57;31.73;;;;;;;4.21;89.56;100237.36;1714153;81;21123;-76
2021/11/13 02:08:47;;;;;;;67.25;30.70;;;;;;;4.24;89.60;100236.85;1725093;81;20919;-77
2021/11/13 02:11:18;;;;;;;66.42;31.70;;;;;;;4.24;89.50;100242.29;1721163;81;21114;-78
2021/11/13 02:13:46;;;;;;;68.80;33.38;;;;;;;4.22;89.67;100238.47;1731221;81;21512;-78
2021/11/13 02:16:14;;;;;;;72.00;34.40;;;;;;;4.21;89.78;100238.72;1714900;81;20927;-77
2021/11/13 02:18:41;;;;;;;72.62;32.63;;;;;;;4.20;89.77;100243.34;1715928;82;21115;-78
2021/11/13 02:21:10;;;;;;;69.85;32.30;;;;;;;4.21;89.80;100245.52;1730641;80;20910;-78
2021/11/13 02:23:39;;;;;;;73.00;32.05;;;;;;;4.25;89.79;100239.85;1730437;81;21006;-76
2021/11/13 02:26:05;;;;;;;71.53;30.77;;;;;;;4.29;89.64;100245.06;1690251;82;20939;-78
2021/11/13 02:28:36;;;;;;;59.53;29.15;;;;;;;4.28;89.21;100237.98;1694527;82;20895;-78
2021/11/13 02:31:07;;;;;;;65.22;30.52;;;;;;;4.28;89.21;100237.98;1744452;81;21126;-78
2021/11/13 02:33:34;;;;;;;65.20;31.48;;;;;;;4.23;89.34;100235.21;1722600;81;20923;-77
2021/11/13 02:36:04;;;;;;;66.53;31.10;;;;;;;4.20;89.58;100237.91;1695188;82;20939;-78
2021/11/13 02:38:36;;;;;;;72.27;31.48;;;;;;;4.24;89.73;100238.21;1718239;81;20921;-78
2021/11/13 02:41:08;;;;;;;67.30;29.02;;;;;;;4.26;89.70;100240.13;1730947;81;20913;-78
2021/11/13 02:43:37;;;;;;;;;;;;;;;4.30;89.70;100237.19;1721440;81;21583;-77
2021/11/13 02:46:07;;;;;;;62.03;27.98;;;;;;;4.29;89.55;100239.62;1725354;81;20088;-78
2021/11/13 02:48:37;;;;;;;65.90;30.75;;;;;;;4.29;89.69;100247.77;1736963;81;20990;-76
2021/11/13 02:51:04;;;;;;;62.62;29.82;;;;;;;4.33;89.68;100246.72;1750298;81;20888;-80
2021/11/13 02:53:31;;;;;;;63.48;29.35;;;;;;;4.34;89.68;100242.92;1750477;81;20894;-77
2021/11/13 02:55:57;;;;;;;62.03;28.45;;;;;;;4.33;89.63;100244.83;1754674;81;21082;-78
2021/11/13 02:58:25;;;;;;;60.70;26.62;;;;;;;4.34;89.65;100246.47;1750690;81;21493;-79
2021/11/13 03:00:59;;;;;;;58.33;27.82;;;;;;;4.34;89.87;100247.83;1736527;82;20910;-81
2021/11/13 03:03:27;;;;;;;62.30;27.82;;;;;;;4.34;89.80;100247.00;1686922;83;21586;-80
2021/11/13 03:05:57;;;;;;;56.73;28.30;;;;;;;4.31;89.87;100248.34;1721078;82;20902;-79
2021/11/13 03:08:31;;;;;;;63.13;30.55;;;;;;;4.29;89.91;100248.59;1742408;82;21118;-80
2021/11/13 03:11:02;;;;;;;63.25;28.80;;;;;;;4.28;89.92;100250.21;1725781;82;20911;-78
2021/11/13 03:13:30;;;;;;;65.87;30.12;;;;;;;4.27;90.07;100241.23;1689453;84;21007;-76
2021/11/13 03:16:01;;;;;;;63.75;30.12;;;;;;;4.28;90.13;100248.85;1718938;83;21003;-81
2021/11/13 03:18:28;;;;;;;59.35;28.80;;;;;;;4.26;90.12;100242.85;1750734;82;21426;-81
2021/11/13 03:20:54;;;;;;;66.00;30.32;;;;;;;4.24;90.23;100250.44;1750301;80;21733;-80
2021/11/13 03:23:21;;;;;;;63.87;28.98;;;;;;;4.23;90.27;100248.80;1750472;81;21454;-81
2021/11/13 03:26:06;;;;;;;54.23;26.42;;;;;;;4.22;90.22;100250.70;1747146;81;20920;-80
2021/11/13 03:28:38;;;;;;;56.42;26.27;;;;;;;4.23;90.45;100252.88;1752304;81;20906;-78
2021/11/13 03:31:05;;;;;;;;;;;;;;;4.22;90.50;100256.67;1752955;81;21402;-79
2021/11/13 03:33:35;;;;;;;57.03;26.60;;;;;;;4.19;90.29;100267.52;1753368;81;21889;-79
2021/11/13 03:36:02;;;;;;;69.22;32.20;;;;;;;4.17;90.27;100263.41;1742858;81;20879;-80
2021/11/13 03:38:29;;;;;;;64.53;28.98;;;;;;;4.14;90.41;100262.56;1741857;81;21571;-78
2021/11/13 03:40:55;;;;;;;65.52;28.35;;;;;;;4.11;90.15;100259.00;1750558;81;20938;-78
2021/11/13 03:43:23;;;;;;;63.17;29.90;;;;;;;4.09;89.97;100268.77;1724606;81;21438;-78
2021/11/13 03:45:51;;;;;;;68.87;30.02;;;;;;;4.09;89.97;100268.77;1706425;81;21055;-77
2021/11/13 03:48:18;;;;;;;59.40;28.00;;;;;;;4.08;90.30;100267.66;1727953;81;20956;-79
2021/11/13 03:50:45;;;;;;;54.67;26.77;;;;;;;4.04;90.33;100265.20;1724012;83;20964;-78
2021/11/13 03:53:12;;;;;;;55.05;26.17;;;;;;;4.04;90.36;100263.84;1724092;82;20936;-77
2021/11/13 03:55:40;;;;;;;60.92;28.17;;;;;;;3.99;90.25;100261.89;1724065;83;20957;-78
2021/11/13 03:58:08;;;;;;;59.98;27.00;;;;;;;3.94;90.24;100261.30;1723997;82;23103;-77
2021/11/13 04:00:35;;;;;;;56.88;26.35;;;;;;;3.91;90.15;100260.98;1723033;82;20924;-77
2021/11/13 04:03:02;;;;;;;62.20;26.82;;;;;;;3.85;90.07;100263.36;1722691;82;20976;-76
2021/11/13 04:05:30;;;;;;;67.00;29.18;;;;;;;3.79;89.88;100265.20;1718732;83;20936;-78
2021/11/13 04:07:58;;;;;;;66.97;28.25;;;;;;;3.72;89.90;100265.92;1724497;83;20939;-79
2021/11/13 04:10:25;;;;;;;66.67;30.68;;;;;;;3.67;90.06;100261.78;1713930;81;21806;-79
2021/11/13 04:12:51;;;;;;;66.77;29.07;;;;;;;3.62;90.26;100261.72;1713985;83;21027;-76
2021/11/13 04:15:20;;;;;;;63.70;27.50;;;;;;;3.58;90.32;100266.84;1721348;82;21060;-77
2021/11/13 04:17:48;;;;;;;69.77;28.12;;;;;;;3.53;89.99;100273.55;1717437;83;20928;-76
2021/11/13 04:20:15;;;;;;;58.00;26.70;;;;;;;3.44;89.55;100273.73;1712896;83;20947;-76
2021/11/13 04:22:43;;;;;;;57.80;26.80;;;;;;;3.33;89.30;100266.52;1716634;82;20880;-76
2021/11/13 04:25:10;;;;;;;68.10;31.65;;;;;;;3.18;88.98;100273.91;1698469;83;20849;-76
2021/11/13 04:27:38;;;;;;;63.78;29.55;;;;;;;3.06;89.02;100271.01;1702979;82;20892;-76
2021/11/13 04:30:08;;;;;;;60.67;28.27;;;;;;;2.93;89.19;100270.81;1707872;83;20948;-76
2021/11/13 04:32:37;;;;;;;59.23;27.98;;;;;;;2.80;88.97;100275.25;1720914;82;20885;-75
2021/11/13 04:37:55;;;;;;;62.88;27.98;;;;;;;2.55;88.95;100268.34;1721664;82;20935;-76
2021/11/13 04:40:26;;;;;;;56.35;26.87;;;;;;;2.41;88.88;100269.72;1718678;83;20930;-76
2021/11/13 04:42:52;;;;;;;59.00;27.02;;;;;;;2.29;88.71;100271.70;1695346;82;20975;-76
2021/11/13 04:45:19;;;;;;;63.63;26.80;;;;;;;2.17;88.58;100278.52;1692049;83;20879;-78
2021/11/13 04:47:47;;;;;;;57.48;26.12;;;;;;;2.06;88.83;100288.05;1693075;84;20975;-77
2021/11/13 04:50:16;;;;;;;59.48;26.50;;;;;;;1.96;88.46;100292.20;1691043;84;20959;-76
2021/11/13 04:52:45;;;;;;;62.85;27.25;;;;;;;1.83;88.11;100287.60;1719601;83;20935;-76
2021/11/13 04:55:12;;;;;;;50.63;24.15;;;;;;;1.71;88.11;100293.61;1725693;82;21094;-79
2021/11/13 04:57:39;;;;;;;56.68;24.75;;;;;;;1.61;88.04;100284.75;1724477;82;20951;-81
2021/11/13 05:00:08;;;;;;;59.10;26.80;;;;;;;1.49;88.07;100294.23;1724502;82;21073;-84
2021/11/13 05:02:35;;;;;;;59.15;26.00;;;;;;;1.40;87.97;100301.60;1724311;82;20943;-76
2021/11/13 05:05:02;;;;;;;65.05;27.25;;;;;;;1.28;87.92;100297.02;1722629;81;20939;-85
2021/11/13 05:07:30;;;;;;;60.58;25.68;;;;;;;1.18;87.80;100300.84;1720298;83;20990;-73
2021/11/13 05:09:58;;;;;;;59.38;25.95;;;;;;;1.06;87.65;100308.17;1720913;82;21514;-75
2021/11/13 05:12:26;;;;;;;53.68;24.00;;;;;;;0.96;87.90;100314.16;1722832;82;20880;-78
2021/11/13 05:14:53;;;;;;;54.10;26.05;;;;;;;0.86;88.06;100310.39;1717672;82;21423;-78
2021/11/13 05:17:19;;;;;;;62.67;27.30;;;;;;;0.80;88.60;100316.72;1714899;82;20977;-77
2021/11/13 05:19:46;;;;;;;60.12;26.90;;;;;;;0.72;88.64;100311.66;1694010;84;21386;-79
2021/11/13 05:22:12;;;;;;;57.83;26.05;;;;;;;0.65;88.63;100309.88;1698962;84;21072;-78
2021/11/13 05:24:39;;;;;;;53.40;25.00;;;;;;;0.60;88.73;100315.16;1697588;84;21425;-74
2021/11/13 05:27:06;;;;;;;55.98;26.12;;;;;;;0.53;88.65;100319.88;1663483;85;20956;-79
2021/11/13 05:29:32;;;;;;;56.48;25.60;;;;;;;0.46;88.59;100319.14;1677714;85;21737;-74
2021/11/13 05:32:01;;;;;;;63.73;27.00;;;;;;;0.41;88.63;100324.94;1665760;85;21414;-75
2021/11/13 05:34:28;;;;;;;56.33;26.57;;;;;;;0.35;88.72;100325.86;1699439;84;20933;-79
2021/11/13 05:36:55;;;;;;;67.92;29.48;;;;;;;0.33;88.91;100335.54;1700724;84;21823;-75
2021/11/13 05:39:23;;;;;;;62.10;28.30;;;;;;;0.29;88.98;100331.13;1702555;84;20930;-71
2021/11/13 05:41:50;;;;;;;69.07;30.23;;;;;;;0.27;89.36;100333.75;1696926;83;20956;-81
2021/11/13 05:44:18;;;;;;;69.97;31.35;;;;;;;0.26;89.66;100337.51;1700519;82;20886;-74
2021/11/13 05:46:50;;;;;;;66.30;29.20;;;;;;;0.26;89.77;100342.91;1700278;84;20901;-74
2021/11/13 05:49:15;;;;;;;65.52;29.23;;;;;;;0.24;89.85;100347.19;1700701;84;21054;-73
2021/11/13 05:51:43;;;;;;;76.60;32.53;;;;;;;0.25;89.92;100353.41;1699465;82;21419;-75
2021/11/13 05:54:10;;;;;;;67.60;29.27;;;;;;;0.27;90.08;100356.19;1699451;83;21428;-74
2021/11/13 05:56:36;;;;;;;63.13;29.63;;;;;;;0.28;90.10;100356.48;1697816;84;21409;-74
2021/11/13 05:59:02;;;;;;;67.67;28.98;;;;;;;0.29;90.08;100364.06;1700159;84;20932;-74
2021/11/13 06:01:31;;;;;;;65.83;28.80;;;;;;;0.31;90.17;100360.61;1702725;84;21742;-72
2021/11/13 06:03:57;;;;;;;65.85;29.10;;;;;;;0.35;90.37;100367.72;1701427;84;20851;-72
2021/11/13 06:06:26;;;;;;;72.87;30.72;;;;;;;0.40;90.58;100373.27;1701919;84;21472;-73
2021/11/13 06:08:52;;;;;;;69.70;31.70;;;;;;;0.46;90.78;100381.28;1699753;84;20940;-73
2021/11/13 06:11:19;;;;;;;72.65;31.87;;;;;;;0.54;90.93;100379.61;1699187;84;20948;-73
2021/11/13 06:13:46;;;;;;;75.40;32.85;;;;;;;0.64;91.01;100383.08;1700374;84;21438;-75
2021/11/13 06:16:12;;;;;;;77.03;32.10;;;;;;;0.72;91.21;100383.27;1699606;82;21475;-73
2021/11/13 06:18:39;;;;;;;67.45;29.87;;;;;;;0.85;91.41;100385.78;1698964;84;20967;-75
2021/11/13 06:21:06;;;;;;;71.55;30.65;;;;;;;0.95;91.49;100382.80;1726043;81;21431;-71
2021/11/13 06:23:34;;;;;;;71.77;28.98;;;;;;;1.07;91.55;100384.18;1701338;83;21402;-71
2021/11/13 06:26:01;;;;;;;58.80;27.10;;;;;;;1.23;91.79;100392.93;1716202;83;21055;-73
2021/11/13 06:28:28;;;;;;;63.02;28.77;;;;;;;1.53;92.56;100390.13;1717783;83;20944;-73
2021/11/13 06:30:55;;;;;;;67.25;28.27;;;;;;;2.05;93.37;100387.97;1723236;83;20979;-73
2021/11/13 06:33:21;;;;;;;56.23;25.02;;;;;;;2.67;92.72;100392.15;1726098;82;20868;-73
2021/11/13 06:35:51;;;;;;;57.40;27.70;;;;;;;3.25;91.17;100393.13;1720857;81;20900;-72
2021/11/13 06:38:18;;;;;;;56.42;27.00;;;;;;;3.83;89.98;100393.16;1726447;83;21083;-73
2021/11/13 06:40:46;;;;;;;64.65;28.23;;;;;;;4.36;88.56;100400.62;1703566;82;20865;-73
2021/11/13 06:43:13;;;;;;;63.73;27.93;;;;;;;5.27;85.16;100397.40;1704934;83;21012;-73
2021/11/13 06:45:39;;;;;;;56.35;27.15;;;;;;;5.27;85.16;100397.40;1715336;82;20904;-73
2021/11/13 06:48:06;;;;;;;53.63;25.02;;;;;;;5.63;83.72;100389.50;1724883;83;20912;-73
2021/11/13 06:50:34;;;;;;;51.90;24.45;;;;;;;5.96;82.36;100393.23;1713807;82;21172;-73
2021/11/13 06:53:02;;;;;;;81.22;31.95;;;;;;;6.27;81.15;100391.48;1715061;83;20940;-73
2021/11/13 06:55:28;;;;;;;46.50;22.65;;;;;;;6.62;80.48;100391.30;1706916;81;20968;-73
2021/11/13 06:57:55;;;;;;;42.20;19.95;;;;;;;7.05;78.94;100394.08;1696104;83;20911;-73
2021/11/13 07:00:22;;;;;;;89.60;32.65;;;;;;;7.44;76.76;100388.08;1720478;82;20912;-73
2021/11/13 07:02:48;;;;;;;71.60;27.27;;;;;;;7.77;75.18;100381.99;1715562;83;21128;-73
2021/11/13 07:05:17;;;;;;;67.17;25.35;;;;;;;8.17;73.50;100381.03;1717703;83;20895;-73
2021/11/13 07:07:43;;;;;;;71.67;28.80;;;;;;;8.57;71.15;100386.90;1695626;83;21471;-73
2021/11/13 07:10:14;;;;;;;57.58;24.07;;;;;;;8.88;69.20;100385.33;1710953;81;21506;-73
2021/11/13 07:12:41;;;;;;;47.70;22.45;;;;;;;9.12;67.73;100386.80;1713109;83;20943;-73
2021/11/13 07:15:09;;;;;;;42.62;19.40;;;;;;;9.36;67.15;100378.63;1711816;83;21882;-73
2021/11/13 07:17:37;;;;;;;37.23;17.75;;;;;;;9.64;65.24;100374.27;1718091;83;20924;-72
2021/11/13 07:20:05;;;;;;;40.20;18.40;;;;;;;9.87;63.66;100378.38;1699524;83;20895;-73
2021/11/13 07:22:32;;;;;;;41.33;17.98;;;;;;;10.04;62.29;100389.45;1710529;82;21419;-73
2021/11/13 07:24:58;;;;;;;27.75;14.68;;;;;;;10.21;60.96;100380.23;1716344;81;21557;-73
2021/11/13 07:27:24;;;;;;;29.23;13.72;;;;;;;10.39;60.16;100384.12;1715420;83;21783;-74
2021/11/13 07:30:04;;;;;;;28.60;13.55;;;;;;;10.50;57.98;100382.30;1714246;83;21420;-73
2021/11/13 07:32:27;;;;;;;36.75;16.67;;;;;;;10.38;57.64;100390.17;1699222;83;20885;-73
2021/11/13 07:34:55;;;;;;;29.48;14.33;;;;;;;10.30;57.86;100389.45;1703448;82;20896;-73
2021/11/13 07:37:22;;;;;;;23.38;12.35;;;;;;;10.30;57.96;100388.08;1718518;81;21137;-74
2021/11/13 07:39:48;;;;;;;24.37;13.28;;;;;;;10.28;57.01;100392.23;1706228;83;21143;-73
2021/11/13 07:42:14;;;;;;;28.12;13.53;;;;;;;10.21;57.74;100392.02;1705329;81;20892;-72
2021/11/13 07:44:43;;;;;;;25.00;13.05;;;;;;;10.33;57.02;100398.47;1697623;83;20853;-74
2021/11/13 07:47:09;;;;;;;24.07;12.45;;;;;;;10.46;56.66;100394.16;1713152;81;20943;-75
2021/11/13 07:49:37;;;;;;;23.22;12.20;;;;;;;10.52;56.40;100399.85;1720987;82;20939;-75
2021/11/13 07:52:05;;;;;;;23.15;12.03;;;;;;;10.38;56.19;100405.27;1725929;82;21191;-74
2021/11/13 07:54:32;;;;;;;26.60;13.28;;;;;;;10.09;56.11;100409.97;1689948;83;21039;-73
2021/11/13 07:56:59;;;;;;;27.75;14.33;;;;;;;9.68;56.83;100410.97;1716803;82;20884;-75
2021/11/13 07:59:25;;;;;;;31.12;14.05;;;;;;;9.36;58.43;100408.78;1715104;82;21489;-76
2021/11/13 08:01:52;;;;;;;24.30;13.30;;;;;;;9.38;58.58;100401.09;1731844;81;20950;-75
2021/11/13 08:04:18;;;;;;;27.58;13.38;;;;;;;9.50;59.38;100402.35;1696517;84;21109;-75
2021/11/13 08:06:46;;;;;;;27.07;13.65;;;;;;;9.75;57.84;100397.73;1695274;84;20872;-75
2021/11/13 08:09:13;;;;;;;26.15;13.35;;;;;;;9.68;57.93;100400.00;1693730;84;20872;-75
2021/11/13 08:11:40;;;;;;;24.87;12.13;;;;;;;9.53;58.14;100398.22;1696632;84;20943;-75
2021/11/13 08:14:06;;;;;;;27.02;13.62;;;;;;;9.51;58.35;100394.39;1725576;82;20946;-74
2021/11/13 08:16:36;;;;;;;26.45;13.10;;;;;;;9.89;58.33;100391.80;1695601;84;20856;-74
2021/11/13 08:19:03;;;;;;;29.35;12.70;;;;;;;10.40;57.34;100393.41;1719298;82;21019;-74
2021/11/13 08:21:29;;;;;;;23.60;12.58;;;;;;;10.80;56.55;100392.61;1722511;82;20939;-75
2021/11/13 08:23:58;;;;;;;23.65;12.43;;;;;;;11.30;54.85;100393.73;1722822;82;20903;-75
2021/11/13 08:26:24;;;;;;;22.32;11.57;;;;;;;11.69;53.82;100391.12;1723308;83;20876;-74
2021/11/13 08:28:52;;;;;;;27.45;12.25;;;;;;;11.99;53.19;100392.53;1691871;84;21159;-74
2021/11/13 08:31:18;;;;;;;25.43;13.03;;;;;;;12.22;52.05;100392.87;1693059;84;20943;-74
2021/11/13 08:33:45;;;;;;;26.55;14.68;;;;;;;12.33;51.03;100390.17;1667213;85;20930;-74
2021/11/13 08:36:11;;;;;;;25.80;12.53;;;;;;;12.33;50.48;100394.30;1659770;86;20924;-75
2021/11/13 08:38:39;;;;;;;23.70;12.65;;;;;;;12.46;50.01;100389.35;1663367;86;20939;-74
2021/11/13 08:41:06;;;;;;;19.75;10.85;;;;;;;12.62;49.47;100399.48;1662475;86;21984;-74
2021/11/13 08:43:33;;;;;;;24.63;14.63;;;;;;;12.59;49.37;100393.77;1663797;86;21446;-74
2021/11/13 08:46:01;;;;;;;21.85;11.75;;;;;;;12.48;48.78;100393.98;1666600;85;20896;-75
2021/11/13 08:48:29;;;;;;;23.27;11.35;;;;;;;12.24;48.60;100390.63;1688433;85;20912;-75
2021/11/13 08:50:56;;;;;;;21.97;11.95;;;;;;;12.06;50.02;100390.20;1689133;85;20924;-75
2021/11/13 08:53:24;;;;;;;22.07;13.10;;;;;;;12.14;49.81;100400.47;1688955;85;21102;-75
2021/11/13 08:55:51;;;;;;;25.88;12.55;;;;;;;12.38;49.71;100401.64;1685857;85;21439;-75
2021/11/13 08:58:19;;;;;;;23.83;12.65;;;;;;;12.77;48.95;100396.36;1689343;84;21388;-75
2021/11/13 09:01:02;;;;;;;22.52;12.13;;;;;;;13.11;47.97;100401.94;1688120;85;20888;-74
2021/11/13 09:03:36;;;;;;;26.57;15.13;;;;;;;13.35;47.92;100398.32;1690278;83;20960;-73
2021/11/13 09:06:09;;;;;;;20.40;11.50;;;;;;;13.30;46.83;100398.45;1693805;84;20880;-73
2021/11/13 09:08:39;;;;;;;22.37;12.55;;;;;;;13.24;47.10;100397.53;1689463;83;20868;-73
2021/11/13 09:11:06;;;;;;;24.52;14.05;;;;;;;13.24;47.05;100397.53;1692756;84;20987;-73
2021/11/13 09:13:33;;;;;;;24.37;13.55;;;;;;;13.27;47.28;100391.39;1691841;84;20916;-73
2021/11/13 09:16:02;;;;;;;25.23;13.18;;;;;;;13.29;46.06;100394.62;1721446;81;20940;-73
2021/11/13 09:18:31;;;;;;;25.97;13.20;;;;;;;13.33;46.29;100395.63;1721370;81;21557;-73
2021/11/13 09:20:59;;;;;;;21.73;12.10;;;;;;;13.45;46.48;100390.36;1722843;82;20877;-75
2021/11/13 09:23:27;;;;;;;23.05;12.88;;;;;;;13.34;46.33;100390.36;1723018;82;20964;-75
2021/11/13 09:25:55;;;;;;;30.82;15.15;;;;;;;13.16;47.44;100392.20;1722487;82;21478;-73
2021/11/13 09:28:21;;;;;;;26.55;14.40;;;;;;;13.13;46.78;100385.90;1722927;83;21454;-73
2021/11/13 09:30:48;;;;;;;26.73;16.10;;;;;;;13.10;45.87;100384.58;1721780;81;21751;-73
2021/11/13 09:33:16;;;;;;;21.20;12.58;;;;;;;12.92;46.28;100391.07;1711956;81;20950;-73
2021/11/13 09:35:43;;;;;;;22.37;12.55;;;;;;;12.95;46.39;100389.07;1724259;81;20907;-72
2021/11/13 09:38:10;;;;;;;26.23;13.20;;;;;;;12.90;47.17;100388.63;1723616;83;20907;-73
2021/11/13 09:40:36;;;;;;;25.72;13.40;;;;;;;12.90;49.21;100386.43;1723460;82;20852;-73
2021/11/13 09:43:04;;;;;;;26.97;13.48;;;;;;;13.18;47.08;100388.56;1722900;82;21087;-75
2021/11/13 09:45:32;;;;;;;23.22;13.05;;;;;;;13.69;45.86;100381.75;1724319;82;20942;-74
2021/11/13 09:48:01;;;;;;;29.98;15.50;;;;;;;13.96;45.72;100375.20;1724697;83;21411;-73
2021/11/13 09:50:31;;;;;;;29.75;14.80;;;;;;;14.14;45.90;100372.20;1725239;82;20971;-74
2021/11/13 09:52:58;;;;;;;26.75;14.23;;;;;;;14.42;43.49;100375.57;1720808;82;20938;-74
2021/11/13 09:55:25;;;;;;;22.20;12.85;;;;;;;14.40;43.42;100379.19;1693082;84;21749;-75
2021/11/13 09:57:52;;;;;;;21.60;12.80;;;;;;;14.34;43.46;100385.99;1676116;84;20975;-74
2021/11/13 10:00:22;;;;;;;23.07;13.78;;;;;;;14.37;43.52;100383.16;1716688;82;20915;-74
2021/11/13 10:02:49;;;;;;;25.12;13.13;;;;;;;14.43;42.92;100377.20;1714970;82;20940;-75
2021/11/13 10:05:16;;;;;;;21.65;13.35;;;;;;;14.43;42.84;100370.29;1726678;82;21555;-74
2021/11/13 10:07:43;;;;;;;23.38;12.90;;;;;;;14.36;43.06;100374.06;1707205;82;21093;-74
2021/11/13 10:10:13;;;;;;;22.15;12.30;;;;;;;14.34;42.74;100376.89;1717336;82;20910;-77
2021/11/13 10:12:43;;;;;;;23.73;12.68;;;;;;;14.32;42.86;100376.41;1711162;82;20954;-79
2021/11/13 10:15:31;;;;;;;26.95;13.85;;;;;;;14.30;43.00;100376.72;1703283;83;20872;-82
2021/11/13 10:18:15;;;;;;;20.12;11.50;;;;;;;14.42;42.79;100379.71;1685056;84;20919;-77
2021/11/13 10:20:49;;;;;;;23.90;12.28;;;;;;;14.35;42.70;100377.14;1676497;84;21095;-77
2021/11/13 10:23:30;;;;;;;24.15;14.73;;;;;;;14.41;42.98;100367.57;1637782;85;38300;-72
2021/11/13 10:26:14;;;;;;;23.62;13.48;;;;;;;14.64;41.73;100364.12;1703219;81;20921;-72
2021/11/13 10:28:52;;;;;;;25.88;14.85;;;;;;;14.52;42.22;100368.33;1691804;83;21002;-79
2021/11/13 10:31:27;;;;;;;22.50;12.58;;;;;;;14.51;41.56;100365.89;1717829;81;21411;-76
2021/11/13 10:33:57;;;;;;;28.73;14.53;;;;;;;14.41;41.61;100364.81;1720571;82;21506;-78
2021/11/13 10:36:33;;;;;;;24.18;13.30;;;;;;;14.55;41.57;100364.11;1728565;83;20903;-78
2021/11/13 10:39:04;;;;;;;26.75;13.72;;;;;;;14.69;41.21;100362.59;1724696;82;21640;-77
2021/11/13 10:41:31;;;;;;;23.32;13.20;;;;;;;14.55;40.52;100364.11;1730755;82;20864;-85
2021/11/13 10:43:58;;;;;;;23.70;14.28;;;;;;;14.20;41.58;100358.49;1728500;82;20947;-78
2021/11/13 10:46:25;;;;;;;26.33;13.60;;;;;;;14.05;42.16;100358.11;1723725;82;21189;-77
2021/11/13 10:48:56;;;;;;;26.20;13.75;;;;;;;14.02;42.78;100364.27;1711981;83;20881;-76
2021/11/13 10:51:29;;;;;;;20.88;12.33;;;;;;;14.26;42.95;100363.30;1717985;82;21422;-78
2021/11/13 10:53:55;;;;;;;22.53;13.33;;;;;;;14.59;41.92;100363.72;1714094;82;20928;-78
2021/11/13 10:56:25;;;;;;;25.82;14.13;;;;;;;14.77;41.02;100364.55;1726295;82;21443;-77
2021/11/13 10:58:58;;;;;;;24.37;14.38;;;;;;;14.77;40.81;100364.55;1730937;82;21537;-78
2021/11/13 11:01:31;;;;;;;26.07;12.90;;;;;;;14.79;40.63;100363.09;1729198;83;20927;-76
2021/11/13 11:04:10;;;;;;;25.32;13.15;;;;;;;14.73;40.71;100360.80;1717712;82;20924;-75
2021/11/13 11:06:38;;;;;;;22.82;12.33;;;;;;;14.80;40.42;100363.91;1720472;82;21582;-77
2021/11/13 11:09:15;;;;;;;23.67;12.47;;;;;;;14.81;39.85;100362.77;1697878;84;20884;-77
2021/11/13 11:11:43;;;;;;;25.48;13.48;;;;;;;14.71;40.40;100363.08;1725472;83;21906;-76
2021/11/13 11:14:15;;;;;;;24.05;13.68;;;;;;;14.76;40.36;100354.63;1729206;82;20938;-77
2021/11/13 11:16:52;;;;;;;23.73;13.40;;;;;;;14.75;40.59;100358.53;1721049;83;21435;-76
2021/11/13 11:19:29;;;;;;;27.00;14.15;;;;;;;14.90;40.21;100351.15;1722952;82;20871;-77
2021/11/13 11:22:08;;;;;;;24.40;13.83;;;;;;;15.13;39.78;100353.96;1715710;82;21529;-78